Austin, Colorado
Current Conditions -  °F | °C
As of 10:35 AM on Tuesday 21 Oct 2014 (Local Time) from KAJZ Reporting Station
Scattered Clouds Scattered Clouds  
Wind Chill: 63°   Ceiling: Unl
Heat Index: 63°   Visibility: 10mi
Dew Point: 42°   Wind: 3mph
Humidity: 47%   Direction: 350°N
Pressure: 30.11"   Gusts: NA
Location:  38.78°N, 107.95°W
Report Text: KAJZ 211635Z AUTO 35003KT 10SM SCT100 SCT120 17/06 A3011 RMK AO2 T01720058
Loading
Personal Weather Stations






























Interactive Weather Map New forecast layout! Learn more

10-Day Weather Forecast

Advertisements
Track Severe Weather on mobile